createdAt,value
2022-10-13T00:01:24.824Z,9.40
2022-10-13T00:03:53.661Z,9.40
2022-10-13T00:06:24.463Z,9.40
2022-10-13T00:08:54.724Z,9.30
2022-10-13T00:11:27.241Z,9.30
2022-10-13T00:13:59.197Z,9.30
2022-10-13T00:16:31.373Z,9.30
2022-10-13T00:19:00.119Z,9.30
2022-10-13T00:21:29.501Z,9.20
2022-10-13T00:23:59.504Z,9.20
2022-10-13T00:26:28.685Z,9.20
2022-10-13T00:28:57.632Z,9.10
2022-10-13T00:31:28.645Z,9.10
2022-10-13T00:33:58.596Z,9.10
2022-10-13T00:36:26.925Z,9.00
2022-10-13T00:38:55.989Z,9.00
2022-10-13T00:41:25.775Z,9.00
2022-10-13T00:44:01.167Z,8.90
2022-10-13T00:46:32.207Z,8.80
2022-10-13T00:49:07.444Z,8.80
2022-10-13T00:51:41.608Z,8.80
2022-10-13T00:54:14.929Z,8.80
2022-10-13T00:56:46.278Z,8.70
2022-10-13T00:59:23.375Z,8.70
2022-10-13T01:01:55.725Z,8.60
2022-10-13T01:04:30.587Z,8.60
2022-10-13T01:06:59.913Z,8.60
2022-10-13T01:09:34.799Z,8.60
2022-10-13T01:12:14.019Z,8.60
2022-10-13T01:14:53.737Z,8.60
2022-10-13T01:17:34.538Z,8.60
2022-10-13T01:20:51.391Z,8.60
2022-10-13T01:23:56.646Z,8.50
2022-10-13T01:27:25.081Z,8.60
2022-10-13T01:30:16.028Z,8.60
2022-10-13T01:33:20.240Z,8.60
2022-10-13T01:36:11.668Z,8.60
2022-10-13T01:38:48.466Z,8.60
2022-10-13T01:41:27.000Z,8.70
2022-10-13T01:44:05.011Z,8.70
2022-10-13T01:46:38.436Z,8.80
2022-10-13T01:49:12.101Z,8.80
2022-10-13T01:51:41.912Z,8.80
2022-10-13T01:54:10.164Z,8.90
2022-10-13T01:56:38.339Z,8.90
2022-10-13T01:59:12.200Z,8.90
2022-10-13T02:02:00.979Z,8.90
2022-10-13T02:04:46.789Z,8.90
2022-10-13T02:07:24.424Z,8.90
2022-10-13T02:10:03.411Z,8.90
2022-10-13T02:12:37.883Z,9.00
2022-10-13T02:15:11.102Z,9.00
2022-10-13T02:17:42.681Z,9.00
2022-10-13T02:20:12.444Z,9.10
2022-10-13T02:22:48.008Z,9.10
2022-10-13T02:25:16.273Z,9.10
2022-10-13T02:27:44.553Z,9.10
2022-10-13T02:30:24.070Z,9.10
2022-10-13T02:32:53.569Z,9.10
2022-10-13T02:35:21.881Z,9.10
2022-10-13T02:37:50.159Z,9.10
2022-10-13T02:40:18.671Z,9.10
2022-10-13T02:42:46.736Z,9.20
2022-10-13T02:45:15.055Z,9.20
2022-10-13T02:47:43.214Z,9.30
2022-10-13T02:50:13.232Z,9.30
2022-10-13T02:52:41.433Z,9.40
2022-10-13T02:55:10.582Z,9.40
2022-10-13T02:57:39.644Z,9.40
2022-10-13T03:00:09.504Z,9.50
2022-10-13T03:02:37.662Z,9.50
2022-10-13T03:05:06.601Z,9.50
2022-10-13T03:07:36.233Z,9.60
2022-10-13T03:10:05.824Z,9.60
2022-10-13T03:12:33.985Z,9.60
2022-10-13T03:15:02.268Z,9.60
2022-10-13T03:17:30.461Z,9.70
2022-10-13T03:19:58.542Z,9.70
2022-10-13T03:22:26.843Z,9.70
2022-10-13T03:24:56.412Z,9.80
2022-10-13T03:27:24.497Z,9.80
2022-10-13T03:29:52.801Z,9.80
2022-10-13T03:32:21.148Z,9.90
2022-10-13T03:34:50.376Z,9.90
2022-10-13T03:37:18.899Z,9.90
2022-10-13T03:39:47.022Z,9.90
2022-10-13T03:42:17.995Z,10.00
2022-10-13T03:44:55.204Z,10.00
2022-10-13T03:47:24.736Z,10.00
2022-10-13T03:49:54.151Z,10.10
2022-10-13T03:52:22.675Z,10.10
2022-10-13T03:54:51.135Z,10.10
2022-10-13T03:57:20.647Z,10.10
2022-10-13T03:59:48.756Z,10.10
2022-10-13T04:02:16.956Z,10.20
2022-10-13T04:04:45.189Z,10.20
2022-10-13T04:07:13.272Z,10.20
2022-10-13T04:09:41.543Z,10.20
2022-10-13T04:12:09.770Z,10.20
2022-10-13T04:14:39.386Z,10.30
2022-10-13T04:17:09.482Z,10.30
2022-10-13T04:19:37.606Z,10.40
2022-10-13T04:22:07.069Z,10.40
2022-10-13T04:24:35.971Z,10.40
2022-10-13T04:27:04.074Z,10.40
2022-10-13T04:29:32.206Z,10.40
2022-10-13T04:32:04.010Z,10.40
2022-10-13T04:34:32.220Z,10.40
2022-10-13T04:37:00.293Z,10.40
2022-10-13T04:39:28.349Z,10.40
2022-10-13T04:41:57.081Z,10.30
2022-10-13T04:44:25.178Z,10.30
2022-10-13T04:46:53.302Z,10.30
2022-10-13T04:49:22.738Z,10.30
2022-10-13T04:51:50.933Z,10.30
2022-10-13T04:54:19.957Z,10.30
2022-10-13T04:56:48.326Z,10.20
2022-10-13T04:59:16.392Z,10.20
2022-10-13T05:01:44.492Z,10.20
2022-10-13T05:04:14.617Z,10.20
2022-10-13T05:07:12.510Z,10.20
2022-10-13T05:09:32.419Z,10.20
2022-10-13T05:12:00.533Z,10.30
2022-10-13T05:14:28.759Z,10.30
2022-10-13T05:16:56.858Z,10.40
2022-10-13T05:19:25.133Z,10.40
2022-10-13T05:21:54.620Z,10.40
2022-10-13T05:24:31.110Z,10.50
2022-10-13T05:26:59.526Z,10.50
2022-10-13T05:29:27.873Z,10.60
2022-10-13T05:31:55.998Z,10.70
2022-10-13T05:34:24.058Z,10.70
2022-10-13T05:36:52.135Z,10.80
2022-10-13T05:39:21.592Z,10.90
2022-10-13T05:41:49.697Z,10.90
2022-10-13T05:44:22.794Z,11.00
2022-10-13T05:46:56.900Z,11.00
2022-10-13T05:49:25.074Z,11.10
2022-10-13T05:51:57.987Z,11.20
2022-10-13T05:54:35.101Z,11.20
2022-10-13T05:57:09.420Z,11.30
2022-10-13T05:59:42.890Z,11.30
2022-10-13T06:02:15.936Z,11.30
2022-10-13T06:04:48.337Z,11.40
2022-10-13T06:07:16.471Z,11.40
2022-10-13T06:09:46.087Z,11.50
2022-10-13T06:12:14.430Z,11.50
2022-10-13T06:14:42.516Z,11.60
2022-10-13T06:17:12.879Z,11.70
2022-10-13T06:19:45.268Z,11.70
2022-10-13T06:22:13.436Z,11.70
2022-10-13T06:24:41.568Z,11.70
2022-10-13T06:27:12.028Z,11.80
2022-10-13T06:29:40.200Z,11.80
2022-10-13T06:32:08.549Z,11.80
2022-10-13T06:34:37.880Z,11.90
2022-10-13T06:37:06.688Z,11.90
2022-10-13T06:39:35.204Z,11.90
2022-10-13T06:42:05.507Z,11.90
2022-10-13T06:44:40.379Z,12.00
2022-10-13T06:47:08.532Z,12.00
2022-10-13T06:49:36.655Z,12.00
2022-10-13T06:52:06.322Z,12.00
2022-10-13T06:54:34.533Z,12.10
2022-10-13T06:57:02.661Z,12.10
2022-10-13T06:59:30.719Z,12.20
2022-10-13T07:02:00.209Z,12.20
2022-10-13T07:04:28.654Z,12.30
2022-10-13T07:06:59.259Z,12.30
2022-10-13T07:09:27.447Z,12.30
2022-10-13T07:11:55.668Z,12.40
2022-10-13T07:14:23.842Z,12.50
2022-10-13T07:16:52.426Z,12.60
2022-10-13T07:19:22.099Z,12.70
2022-10-13T07:21:50.182Z,12.80
2022-10-13T07:24:18.386Z,12.80
2022-10-13T07:26:46.489Z,12.90
2022-10-13T07:29:14.579Z,13.00
2022-10-13T07:31:44.675Z,13.00
2022-10-13T07:34:13.245Z,13.00
2022-10-13T07:36:42.792Z,13.10
2022-10-13T07:39:11.095Z,13.10
2022-10-13T07:41:39.294Z,13.10
2022-10-13T07:44:07.426Z,13.20
2022-10-13T07:46:35.556Z,13.30
2022-10-13T07:49:03.710Z,13.30
2022-10-13T07:51:31.838Z,13.30
2022-10-13T07:54:01.339Z,13.20
2022-10-13T07:56:29.439Z,13.30
2022-10-13T07:58:57.629Z,13.30
2022-10-13T08:01:25.938Z,13.30
2022-10-13T08:03:56.794Z,13.40
2022-10-13T08:06:25.065Z,13.40
2022-10-13T08:08:57.622Z,13.50
2022-10-13T08:11:27.957Z,13.60
2022-10-13T08:14:00.551Z,13.70
2022-10-13T08:16:29.659Z,13.90
2022-10-13T08:18:59.000Z,13.90
2022-10-13T08:24:19.364Z,14.10
2022-10-13T08:26:49.405Z,14.20
2022-10-13T08:29:23.082Z,14.20
2022-10-13T08:31:53.670Z,14.30
2022-10-13T08:34:22.932Z,14.40
2022-10-13T08:36:53.138Z,14.40
2022-10-13T08:39:22.896Z,14.50
2022-10-13T08:41:54.175Z,14.50
2022-10-13T08:47:29.149Z,14.50
2022-10-13T08:50:01.149Z,14.50
2022-10-13T08:52:43.906Z,14.50
2022-10-13T08:55:23.582Z,14.50
2022-10-13T08:57:53.848Z,14.60
2022-10-13T09:00:29.673Z,14.60
2022-10-13T09:03:20.469Z,14.70
2022-10-13T09:06:06.032Z,14.70
2022-10-13T09:08:42.451Z,14.80
2022-10-13T09:11:13.553Z,14.90
2022-10-13T09:13:43.179Z,14.90
2022-10-13T09:16:11.413Z,14.90
2022-10-13T09:18:40.469Z,14.90
2022-10-13T09:21:24.084Z,15.00
2022-10-13T09:23:54.857Z,15.00
2022-10-13T09:26:25.605Z,15.00
2022-10-13T09:28:55.166Z,15.10
2022-10-13T09:31:28.393Z,15.10
2022-10-13T09:34:01.881Z,15.20
2022-10-13T09:36:31.684Z,15.30
2022-10-13T09:39:12.795Z,15.40
2022-10-13T09:41:43.102Z,15.50
2022-10-13T09:44:18.912Z,15.60
2022-10-13T09:46:54.739Z,15.70
2022-10-13T09:49:37.694Z,15.80
2022-10-13T09:52:20.026Z,15.80
2022-10-13T09:54:51.145Z,15.80
2022-10-13T09:57:29.869Z,15.80
2022-10-13T10:00:15.104Z,15.90
2022-10-13T10:02:52.313Z,16.00
2022-10-13T10:05:26.643Z,16.10
2022-10-13T10:08:05.168Z,16.20
2022-10-13T10:10:40.416Z,16.30
2022-10-13T10:13:13.128Z,16.40
2022-10-13T10:15:56.613Z,16.50
2022-10-13T10:18:37.674Z,16.60
2022-10-13T10:21:16.491Z,16.70
2022-10-13T10:23:52.958Z,16.70
2022-10-13T10:26:32.638Z,16.70
2022-10-13T10:29:34.891Z,16.60
2022-10-13T10:32:30.031Z,16.60
2022-10-13T10:35:05.204Z,16.50
2022-10-13T10:38:07.903Z,16.50
2022-10-13T10:40:45.159Z,16.50
2022-10-13T10:43:44.277Z,16.50
2022-10-13T10:46:19.252Z,16.60
2022-10-13T10:48:53.875Z,16.60
2022-10-13T10:51:29.174Z,16.60
2022-10-13T10:54:13.640Z,16.60
2022-10-13T10:56:48.077Z,16.70
2022-10-13T10:59:42.432Z,16.80
2022-10-13T11:02:35.838Z,16.90
2022-10-13T11:05:06.675Z,17.10
2022-10-13T11:07:59.051Z,17.20
2022-10-13T11:10:29.661Z,17.40
2022-10-13T11:13:22.277Z,17.40
2022-10-13T11:15:50.964Z,17.40
2022-10-13T11:19:05.870Z,17.50
2022-10-13T11:22:23.959Z,17.70
2022-10-13T11:25:00.869Z,17.80
2022-10-13T11:27:45.189Z,18.00
2022-10-13T11:30:49.894Z,18.10
2022-10-13T11:33:54.669Z,18.30
2022-10-13T11:36:57.614Z,18.40
2022-10-13T11:40:16.108Z,18.60
2022-10-13T11:43:20.048Z,18.90
2022-10-13T11:46:27.592Z,19.10
2022-10-13T11:49:56.240Z,19.30
2022-10-13T11:52:44.702Z,19.30
2022-10-13T11:55:20.509Z,19.40
2022-10-13T11:57:49.221Z,19.50
2022-10-13T12:00:20.201Z,19.50
2022-10-13T12:02:50.822Z,19.40
2022-10-13T12:05:27.365Z,19.40
2022-10-13T12:08:01.929Z,19.40
2022-10-13T12:10:34.092Z,19.30
2022-10-13T12:13:05.120Z,19.30
2022-10-13T12:15:37.230Z,19.30
2022-10-13T12:18:24.512Z,19.40
2022-10-13T12:20:58.458Z,19.30
2022-10-13T12:23:27.924Z,19.30
2022-10-13T12:25:58.528Z,19.30
2022-10-13T12:28:31.139Z,19.30
2022-10-13T12:31:01.486Z,19.30
2022-10-13T12:33:35.270Z,19.30
2022-10-13T12:36:15.097Z,19.30
2022-10-13T12:38:50.327Z,19.40
2022-10-13T12:41:26.382Z,19.40
2022-10-13T12:43:55.541Z,19.30
2022-10-13T12:46:42.117Z,19.30
2022-10-13T12:49:18.048Z,19.30
2022-10-13T12:51:50.286Z,19.30
2022-10-13T12:54:27.837Z,19.40
2022-10-13T12:57:00.545Z,19.40
2022-10-13T12:59:31.822Z,19.30
2022-10-13T13:02:03.313Z,19.30
2022-10-13T13:04:43.109Z,19.20
2022-10-13T13:07:31.869Z,19.10
2022-10-13T13:10:16.833Z,19.00
2022-10-13T13:12:48.430Z,19.10
2022-10-13T13:15:36.083Z,19.10
2022-10-13T13:18:29.485Z,19.10
2022-10-13T13:20:58.528Z,19.20
2022-10-13T13:23:33.174Z,19.20
2022-10-13T13:26:03.918Z,19.30
2022-10-13T13:28:34.136Z,19.30
2022-10-13T13:31:05.399Z,19.30
2022-10-13T13:33:33.521Z,19.30
2022-10-13T13:36:03.315Z,19.30
2022-10-13T13:38:32.154Z,19.20
2022-10-13T13:41:03.170Z,19.20
2022-10-13T13:43:33.737Z,19.10
2022-10-13T13:46:01.901Z,19.10
2022-10-13T13:48:30.046Z,19.00
2022-10-13T13:50:59.296Z,18.80
2022-10-13T13:53:27.372Z,18.70
2022-10-13T13:55:55.546Z,18.70
2022-10-13T13:58:23.695Z,18.70
2022-10-13T14:00:54.792Z,18.70
2022-10-13T14:03:22.892Z,18.70
2022-10-13T14:05:51.009Z,18.70
2022-10-13T14:08:20.248Z,18.70
2022-10-13T14:10:48.408Z,18.60
2022-10-13T14:13:19.641Z,18.60
2022-10-13T14:15:56.892Z,18.50
2022-10-13T14:18:26.822Z,18.40
2022-10-13T14:20:54.974Z,18.40
2022-10-13T14:23:23.303Z,18.30
2022-10-13T14:25:51.443Z,18.20
2022-10-13T14:28:22.021Z,18.20
2022-10-13T14:30:50.210Z,18.10
2022-10-13T14:33:19.597Z,18.10
2022-10-13T14:35:49.181Z,18.10
2022-10-13T14:38:17.614Z,18.20
2022-10-13T14:40:45.772Z,18.30
2022-10-13T14:43:13.875Z,18.40
2022-10-13T14:45:41.979Z,18.40
2022-10-13T14:48:12.198Z,18.50
2022-10-13T14:50:40.388Z,18.50
2022-10-13T14:53:15.269Z,18.50
2022-10-13T14:55:44.053Z,18.50
2022-10-13T14:58:13.469Z,18.60
2022-10-13T15:00:44.263Z,18.60
2022-10-13T15:03:12.603Z,18.70
2022-10-13T15:05:40.797Z,18.90
2022-10-13T15:08:10.223Z,19.20
2022-10-13T15:10:38.696Z,19.30
2022-10-13T15:13:06.895Z,19.30
2022-10-13T15:15:35.028Z,19.30
2022-10-13T15:18:03.125Z,19.30
2022-10-13T15:20:31.217Z,19.40
2022-10-13T15:22:59.296Z,19.40
2022-10-13T15:25:28.745Z,19.40
2022-10-13T15:27:56.819Z,19.30
2022-10-13T15:30:24.918Z,19.30
2022-10-13T15:32:53.048Z,19.20
2022-10-13T15:35:21.161Z,19.00
2022-10-13T15:37:49.269Z,18.90
2022-10-13T15:40:17.484Z,18.80
2022-10-13T15:42:46.962Z,18.60
2022-10-13T15:45:16.081Z,18.40
2022-10-13T15:47:44.185Z,18.30
2022-10-13T15:50:12.350Z,18.10
2022-10-13T15:52:41.192Z,18.00
2022-10-13T15:55:12.407Z,17.90
2022-10-13T15:57:40.696Z,17.70
2022-10-13T16:00:13.679Z,17.60
2022-10-13T16:02:43.630Z,17.40
2022-10-13T16:05:13.969Z,17.30
2022-10-13T16:07:42.916Z,17.10
2022-10-13T16:10:14.514Z,17.00
2022-10-13T16:12:49.237Z,16.90
2022-10-13T16:15:20.051Z,16.80
2022-10-13T16:17:48.151Z,16.60
2022-10-13T16:20:16.335Z,16.60
2022-10-13T16:22:44.540Z,16.50
2022-10-13T16:25:12.746Z,16.30
2022-10-13T16:27:44.347Z,16.30
2022-10-13T16:30:14.151Z,16.20
2022-10-13T16:32:43.662Z,16.10
2022-10-13T16:35:12.161Z,16.00
2022-10-13T16:37:40.242Z,15.90
2022-10-13T16:40:09.869Z,15.80
2022-10-13T16:42:38.116Z,15.70
2022-10-13T16:45:08.156Z,15.70
2022-10-13T16:47:36.335Z,15.60
2022-10-13T16:50:09.483Z,15.60
2022-10-13T16:52:37.925Z,15.50
2022-10-13T16:55:08.030Z,15.40
2022-10-13T16:57:36.211Z,15.30
2022-10-13T17:00:05.457Z,15.30
2022-10-13T17:02:33.561Z,15.20
2022-10-13T17:05:01.704Z,15.20
2022-10-13T17:07:31.187Z,15.10
2022-10-13T17:09:59.618Z,15.10
2022-10-13T17:12:27.738Z,15.10
2022-10-13T17:14:55.797Z,15.00
2022-10-13T17:17:23.923Z,15.00
2022-10-13T17:19:52.138Z,14.90
2022-10-13T17:22:20.292Z,14.80
2022-10-13T17:24:49.890Z,14.80
2022-10-13T17:27:18.471Z,14.70
2022-10-13T17:29:46.938Z,14.60
2022-10-13T17:32:15.373Z,14.60
2022-10-13T17:34:43.478Z,14.60
2022-10-13T17:37:14.885Z,14.50
2022-10-13T17:39:42.999Z,14.50
2022-10-13T17:42:12.894Z,14.40
2022-10-13T17:44:42.086Z,14.40
2022-10-13T17:47:11.637Z,14.40
2022-10-13T17:49:39.921Z,14.40
2022-10-13T17:52:08.064Z,14.40
2022-10-13T17:54:36.206Z,14.40
2022-10-13T17:57:05.497Z,14.40
2022-10-13T17:59:35.029Z,14.40
2022-10-13T18:02:03.239Z,14.40
2022-10-13T18:04:31.363Z,14.30
2022-10-13T18:06:59.459Z,14.30
2022-10-13T18:09:27.638Z,14.30
2022-10-13T18:11:56.322Z,14.20
2022-10-13T18:14:25.943Z,14.20
2022-10-13T18:16:56.334Z,14.20
2022-10-13T18:19:24.813Z,14.20
2022-10-13T18:21:53.164Z,14.20
2022-10-13T18:24:21.442Z,14.10
2022-10-13T18:26:49.622Z,14.10
2022-10-13T18:29:17.782Z,14.10
2022-10-13T18:31:46.263Z,14.10
2022-10-13T18:34:18.040Z,14.10
2022-10-13T18:36:48.453Z,14.10
2022-10-13T18:39:19.165Z,14.10
2022-10-13T18:41:50.107Z,14.10
2022-10-13T18:44:19.013Z,14.10
2022-10-13T18:46:51.050Z,14.10
2022-10-13T18:49:23.780Z,14.10
2022-10-13T18:51:52.473Z,14.10
2022-10-13T18:54:20.626Z,14.10
2022-10-13T18:56:48.816Z,14.00
2022-10-13T18:59:17.576Z,14.00
2022-10-13T19:01:45.741Z,14.00
2022-10-13T19:04:15.746Z,14.00
2022-10-13T19:06:46.333Z,14.00
2022-10-13T19:09:17.325Z,14.00
2022-10-13T19:11:45.930Z,14.00
2022-10-13T19:14:17.672Z,14.00
2022-10-13T19:16:46.087Z,14.00
2022-10-13T19:19:15.383Z,13.90
2022-10-13T19:21:45.141Z,13.90
2022-10-13T19:24:13.524Z,13.90
2022-10-13T19:26:42.273Z,13.90
2022-10-13T19:29:15.616Z,13.90
2022-10-13T19:31:45.007Z,13.90
2022-10-13T19:34:14.829Z,14.00
2022-10-13T19:36:47.207Z,14.00
2022-10-13T19:39:19.353Z,14.00
2022-10-13T19:41:49.469Z,14.00
2022-10-13T19:44:19.933Z,14.00
2022-10-13T19:46:49.289Z,14.00
2022-10-13T19:49:22.715Z,14.00
2022-10-13T19:51:54.014Z,14.00
2022-10-13T19:54:24.313Z,14.00
2022-10-13T19:56:52.519Z,14.00
2022-10-13T19:59:20.933Z,14.00
2022-10-13T20:01:49.345Z,14.00
2022-10-13T20:04:20.331Z,14.00
2022-10-13T20:06:49.256Z,14.00
2022-10-13T20:09:19.803Z,14.00
2022-10-13T20:11:49.881Z,14.00
2022-10-13T20:14:18.779Z,13.90
2022-10-13T20:16:47.117Z,13.90
2022-10-13T20:19:19.271Z,13.80
2022-10-13T20:21:51.553Z,13.80
2022-10-13T20:24:23.510Z,13.80
2022-10-13T20:26:51.820Z,13.80
2022-10-13T20:29:23.600Z,13.70
2022-10-13T20:31:51.791Z,13.70
2022-10-13T20:34:19.881Z,13.70
2022-10-13T20:36:50.817Z,13.60
2022-10-13T20:39:20.294Z,13.60
2022-10-13T20:41:48.406Z,13.50
2022-10-13T20:44:16.481Z,13.50
2022-10-13T20:46:44.656Z,13.50
2022-10-13T20:49:13.597Z,13.40
2022-10-13T20:51:42.813Z,13.40
2022-10-13T20:54:12.108Z,13.30
2022-10-13T20:56:41.982Z,13.30
2022-10-13T20:59:12.626Z,13.20
2022-10-13T21:01:41.246Z,13.20
2022-10-13T21:04:09.346Z,13.10
2022-10-13T21:06:37.563Z,13.10
2022-10-13T21:09:06.814Z,13.10
2022-10-13T21:11:36.914Z,13.00
2022-10-13T21:14:10.137Z,13.00
2022-10-13T21:16:39.203Z,12.90
2022-10-13T21:19:10.274Z,12.90
2022-10-13T21:21:38.867Z,12.80
2022-10-13T21:24:09.268Z,12.80
2022-10-13T21:26:38.372Z,12.80
2022-10-13T21:29:08.055Z,12.70
2022-10-13T21:31:36.755Z,12.70
2022-10-13T21:34:05.304Z,12.70
2022-10-13T21:36:34.700Z,12.60
2022-10-13T21:39:06.444Z,12.60
2022-10-13T21:41:34.906Z,12.60
2022-10-13T21:44:03.779Z,12.60
2022-10-13T21:46:36.421Z,12.60
2022-10-13T21:49:06.993Z,12.60
2022-10-13T21:51:38.196Z,12.60
2022-10-13T21:54:09.735Z,12.60
2022-10-13T21:56:38.800Z,12.60
2022-10-13T21:59:08.016Z,12.60
2022-10-13T22:01:37.422Z,12.70
2022-10-13T22:04:12.569Z,12.70
2022-10-13T22:06:40.915Z,12.60
2022-10-13T22:09:09.685Z,12.70
2022-10-13T22:11:40.218Z,12.70
2022-10-13T22:14:12.130Z,12.60
2022-10-13T22:16:44.242Z,12.60
2022-10-13T22:19:13.055Z,12.60
2022-10-13T22:21:44.678Z,12.60
2022-10-13T22:24:15.930Z,12.50
2022-10-13T22:26:46.557Z,12.50
2022-10-13T22:29:20.875Z,12.50
2022-10-13T22:31:51.376Z,12.50
2022-10-13T22:34:19.519Z,12.50
2022-10-13T22:36:48.141Z,12.50
2022-10-13T22:39:17.024Z,12.50
2022-10-13T22:41:45.932Z,12.50
2022-10-13T22:44:14.802Z,12.50
2022-10-13T22:46:43.223Z,12.60
2022-10-13T22:49:15.953Z,12.60
2022-10-13T22:51:44.063Z,12.60
2022-10-13T22:54:12.415Z,12.60
2022-10-13T22:56:43.086Z,12.60
2022-10-13T22:59:13.713Z,12.60
2022-10-13T23:01:42.238Z,12.60
2022-10-13T23:04:10.481Z,12.60
2022-10-13T23:06:40.032Z,12.60
2022-10-13T23:09:13.445Z,12.60
2022-10-13T23:11:41.879Z,12.60
2022-10-13T23:14:12.261Z,12.60
2022-10-13T23:16:40.460Z,12.60
2022-10-13T23:19:08.603Z,12.60
2022-10-13T23:21:36.700Z,12.60
2022-10-13T23:24:08.177Z,12.70
2022-10-13T23:26:36.810Z,12.70
2022-10-13T23:29:05.844Z,12.70
2022-10-13T23:31:34.319Z,12.70
2022-10-13T23:34:02.475Z,12.70
2022-10-13T23:36:33.357Z,12.70
2022-10-13T23:39:05.776Z,12.80
2022-10-13T23:41:34.392Z,12.70
2022-10-13T23:44:02.529Z,12.80
2022-10-13T23:46:30.742Z,12.80
2022-10-13T23:48:58.845Z,12.80
2022-10-13T23:51:27.635Z,12.80
2022-10-13T23:53:56.141Z,12.80
2022-10-13T23:56:26.009Z,12.80
2022-10-13T23:58:54.225Z,12.80
